sensor_id;sensor_type;location;lat;lon;timestamp;P1;durP1;ratioP1;P2;durP2;ratioP2
4527;SDS011;62320;51.520;6.818;2022-10-16T00:02:53;9.90;;;4.47;;
4527;SDS011;62320;51.520;6.818;2022-10-16T00:12:54;9.93;;;4.63;;
4527;SDS011;62320;51.520;6.818;2022-10-16T00:22:55;10.23;;;4.75;;
4527;SDS011;62320;51.520;6.818;2022-10-16T00:32:57;9.53;;;4.50;;
4527;SDS011;62320;51.520;6.818;2022-10-16T00:42:58;10.00;;;5.10;;
4527;SDS011;62320;51.520;6.818;2022-10-16T00:53:00;9.35;;;4.63;;
4527;SDS011;62320;51.520;6.818;2022-10-16T01:03:02;10.73;;;5.40;;
4527;SDS011;62320;51.520;6.818;2022-10-16T01:34:06;10.23;;;4.40;;
4527;SDS011;62320;51.520;6.818;2022-10-16T01:44:19;8.90;;;4.60;;
4527;SDS011;62320;51.520;6.818;2022-10-16T01:54:28;10.30;;;5.07;;
4527;SDS011;62320;51.520;6.818;2022-10-16T02:04:36;9.48;;;4.60;;
4527;SDS011;62320;51.520;6.818;2022-10-16T02:14:40;13.43;;;4.50;;
4527;SDS011;62320;51.520;6.818;2022-10-16T02:24:48;12.80;;;5.13;;
4527;SDS011;62320;51.520;6.818;2022-10-16T02:34:57;11.10;;;4.55;;
4527;SDS011;62320;51.520;6.818;2022-10-16T02:45:01;9.40;;;3.35;;
4527;SDS011;62320;51.520;6.818;2022-10-16T02:55:02;6.10;;;2.80;;
4527;SDS011;62320;51.520;6.818;2022-10-16T03:05:04;8.10;;;2.90;;
4527;SDS011;62320;51.520;6.818;2022-10-16T03:15:06;7.75;;;2.70;;
4527;SDS011;62320;51.520;6.818;2022-10-16T03:25:08;6.23;;;2.60;;
4527;SDS011;62320;51.520;6.818;2022-10-16T03:35:10;5.80;;;2.23;;
4527;SDS011;62320;51.520;6.818;2022-10-16T03:45:11;6.22;;;2.33;;
4527;SDS011;62320;51.520;6.818;2022-10-16T03:55:13;7.53;;;2.60;;
4527;SDS011;62320;51.520;6.818;2022-10-16T04:05:14;6.17;;;2.40;;
4527;SDS011;62320;51.520;6.818;2022-10-16T04:15:16;5.20;;;2.50;;
4527;SDS011;62320;51.520;6.818;2022-10-16T04:25:17;6.65;;;2.55;;
4527;SDS011;62320;51.520;6.818;2022-10-16T04:35:19;7.30;;;2.47;;
4527;SDS011;62320;51.520;6.818;2022-10-16T04:45:22;5.20;;;1.87;;
4527;SDS011;62320;51.520;6.818;2022-10-16T04:55:23;4.88;;;2.00;;
4527;SDS011;62320;51.520;6.818;2022-10-16T05:05:24;5.33;;;1.87;;
4527;SDS011;62320;51.520;6.818;2022-10-16T05:15:26;5.30;;;2.13;;
4527;SDS011;62320;51.520;6.818;2022-10-16T05:25:27;4.88;;;1.80;;
4527;SDS011;62320;51.520;6.818;2022-10-16T05:35:29;4.60;;;2.10;;
4527;SDS011;62320;51.520;6.818;2022-10-16T05:45:30;5.10;;;2.23;;
4527;SDS011;62320;51.520;6.818;2022-10-16T05:55:32;6.63;;;2.53;;
4527;SDS011;62320;51.520;6.818;2022-10-16T06:05:33;5.18;;;2.50;;
4527;SDS011;62320;51.520;6.818;2022-10-16T06:15:35;6.63;;;2.90;;
4527;SDS011;62320;51.520;6.818;2022-10-16T06:25:36;5.83;;;2.50;;
4527;SDS011;62320;51.520;6.818;2022-10-16T06:35:37;6.00;;;2.60;;
4527;SDS011;62320;51.520;6.818;2022-10-16T06:45:39;6.47;;;2.67;;
4527;SDS011;62320;51.520;6.818;2022-10-16T06:55:40;7.60;;;3.30;;
4527;SDS011;62320;51.520;6.818;2022-10-16T07:05:42;5.68;;;3.00;;
4527;SDS011;62320;51.520;6.818;2022-10-16T07:15:43;7.17;;;3.13;;
4527;SDS011;62320;51.520;6.818;2022-10-16T07:25:45;8.10;;;3.93;;
4527;SDS011;62320;51.520;6.818;2022-10-16T07:35:53;10.45;;;3.90;;
4527;SDS011;62320;51.520;6.818;2022-10-16T07:45:55;10.23;;;3.90;;
4527;SDS011;62320;51.520;6.818;2022-10-16T07:56:02;8.07;;;3.17;;
4527;SDS011;62320;51.520;6.818;2022-10-16T08:06:05;6.27;;;2.90;;
4527;SDS011;62320;51.520;6.818;2022-10-16T08:16:07;7.07;;;2.10;;
4527;SDS011;62320;51.520;6.818;2022-10-16T08:26:09;6.47;;;2.70;;
4527;SDS011;62320;51.520;6.818;2022-10-16T08:36:11;6.60;;;2.60;;
4527;SDS011;62320;51.520;6.818;2022-10-16T08:56:23;6.00;;;2.17;;
4527;SDS011;62320;51.520;6.818;2022-10-16T09:06:37;5.07;;;2.10;;
4527;SDS011;62320;51.520;6.818;2022-10-16T09:16:45;5.47;;;2.00;;
4527;SDS011;62320;51.520;6.818;2022-10-16T09:26:50;4.80;;;1.73;;
4527;SDS011;62320;51.520;6.818;2022-10-16T09:36:53;4.87;;;1.60;;
4527;SDS011;62320;51.520;6.818;2022-10-16T09:57:27;5.18;;;1.70;;
4527;SDS011;62320;51.520;6.818;2022-10-16T10:07:33;5.33;;;2.00;;
4527;SDS011;62320;51.520;6.818;2022-10-16T10:17:54;4.37;;;1.57;;
4527;SDS011;62320;51.520;6.818;2022-10-16T11:09:57;4.87;;;1.43;;
4527;SDS011;62320;51.520;6.818;2022-10-16T11:30:36;4.90;;;1.03;;
4527;SDS011;62320;51.520;6.818;2022-10-16T11:40:45;7.03;;;1.40;;
4527;SDS011;62320;51.520;6.818;2022-10-16T11:50:53;4.27;;;1.60;;
4527;SDS011;62320;51.520;6.818;2022-10-16T12:01:00;5.20;;;1.30;;
4527;SDS011;62320;51.520;6.818;2022-10-16T12:11:23;5.78;;;1.33;;
4527;SDS011;62320;51.520;6.818;2022-10-16T12:21:29;4.70;;;1.20;;
4527;SDS011;62320;51.520;6.818;2022-10-16T12:31:45;5.57;;;1.30;;
4527;SDS011;62320;51.520;6.818;2022-10-16T12:42:03;4.85;;;1.50;;
4527;SDS011;62320;51.520;6.818;2022-10-16T12:52:22;5.32;;;1.73;;
4527;SDS011;62320;51.520;6.818;2022-10-16T13:13:02;4.50;;;1.53;;
4527;SDS011;62320;51.520;6.818;2022-10-16T13:23:27;4.60;;;1.10;;
4527;SDS011;62320;51.520;6.818;2022-10-16T13:33:38;5.03;;;1.23;;
4527;SDS011;62320;51.520;6.818;2022-10-16T13:43:43;6.20;;;1.50;;
4527;SDS011;62320;51.520;6.818;2022-10-16T13:53:50;4.53;;;1.15;;
4527;SDS011;62320;51.520;6.818;2022-10-16T14:03:52;7.43;;;1.27;;
4527;SDS011;62320;51.520;6.818;2022-10-16T14:13:54;5.80;;;2.00;;
4527;SDS011;62320;51.520;6.818;2022-10-16T14:23:56;4.93;;;1.88;;
4527;SDS011;62320;51.520;6.818;2022-10-16T14:33:57;4.57;;;1.50;;
4527;SDS011;62320;51.520;6.818;2022-10-16T14:44:03;7.03;;;2.00;;
4527;SDS011;62320;51.520;6.818;2022-10-16T14:54:05;4.53;;;1.40;;
4527;SDS011;62320;51.520;6.818;2022-10-16T15:04:09;5.45;;;1.30;;
4527;SDS011;62320;51.520;6.818;2022-10-16T15:14:13;4.13;;;1.23;;
4527;SDS011;62320;51.520;6.818;2022-10-16T15:24:19;6.37;;;2.60;;
4527;SDS011;62320;51.520;6.818;2022-10-16T15:34:21;5.53;;;2.08;;
4527;SDS011;62320;51.520;6.818;2022-10-16T15:44:23;5.63;;;1.80;;
4527;SDS011;62320;51.520;6.818;2022-10-16T15:54:27;5.70;;;1.97;;
4527;SDS011;62320;51.520;6.818;2022-10-16T16:04:31;4.60;;;2.17;;
4527;SDS011;62320;51.520;6.818;2022-10-16T16:14:44;5.10;;;1.97;;
4527;SDS011;62320;51.520;6.818;2022-10-16T16:24:47;6.03;;;2.43;;
4527;SDS011;62320;51.520;6.818;2022-10-16T16:34:48;10.03;;;4.23;;
4527;SDS011;62320;51.520;6.818;2022-10-16T16:44:49;5.75;;;2.80;;
4527;SDS011;62320;51.520;6.818;2022-10-16T16:54:51;6.20;;;2.50;;
4527;SDS011;62320;51.520;6.818;2022-10-16T17:04:53;8.57;;;4.00;;
4527;SDS011;62320;51.520;6.818;2022-10-16T17:14:54;11.60;;;4.93;;
4527;SDS011;62320;51.520;6.818;2022-10-16T17:24:56;9.83;;;4.70;;
4527;SDS011;62320;51.520;6.818;2022-10-16T17:34:57;9.80;;;5.60;;
4527;SDS011;62320;51.520;6.818;2022-10-16T17:44:58;8.57;;;4.30;;
4527;SDS011;62320;51.520;6.818;2022-10-16T17:55:00;12.17;;;6.00;;
4527;SDS011;62320;51.520;6.818;2022-10-16T18:05:01;13.13;;;6.97;;
4527;SDS011;62320;51.520;6.818;2022-10-16T18:15:06;14.80;;;7.40;;
4527;SDS011;62320;51.520;6.818;2022-10-16T18:25:07;10.35;;;5.05;;
4527;SDS011;62320;51.520;6.818;2022-10-16T18:35:09;11.40;;;4.60;;
4527;SDS011;62320;51.520;6.818;2022-10-16T18:45:10;8.80;;;4.30;;
4527;SDS011;62320;51.520;6.818;2022-10-16T18:55:12;9.77;;;4.28;;
4527;SDS011;62320;51.520;6.818;2022-10-16T19:05:13;10.90;;;4.67;;
4527;SDS011;62320;51.520;6.818;2022-10-16T19:15:16;10.80;;;3.97;;
4527;SDS011;62320;51.520;6.818;2022-10-16T19:25:17;12.95;;;7.82;;
4527;SDS011;62320;51.520;6.818;2022-10-16T19:35:21;10.63;;;5.35;;
4527;SDS011;62320;51.520;6.818;2022-10-16T19:45:22;10.20;;;4.97;;
4527;SDS011;62320;51.520;6.818;2022-10-16T19:55:24;10.87;;;5.80;;
4527;SDS011;62320;51.520;6.818;2022-10-16T20:05:25;10.32;;;5.53;;
4527;SDS011;62320;51.520;6.818;2022-10-16T20:15:26;11.87;;;6.97;;
4527;SDS011;62320;51.520;6.818;2022-10-16T20:25:28;8.70;;;4.80;;
4527;SDS011;62320;51.520;6.818;2022-10-16T20:35:34;9.80;;;5.13;;
4527;SDS011;62320;51.520;6.818;2022-10-16T20:45:36;10.40;;;5.93;;
4527;SDS011;62320;51.520;6.818;2022-10-16T20:55:38;10.40;;;6.33;;
4527;SDS011;62320;51.520;6.818;2022-10-16T21:05:40;8.25;;;4.97;;
4527;SDS011;62320;51.520;6.818;2022-10-16T21:15:42;7.57;;;4.43;;
4527;SDS011;62320;51.520;6.818;2022-10-16T21:25:47;8.23;;;4.47;;
4527;SDS011;62320;51.520;6.818;2022-10-16T21:35:51;9.07;;;4.67;;
4527;SDS011;62320;51.520;6.818;2022-10-16T21:45:53;8.98;;;4.72;;
4527;SDS011;62320;51.520;6.818;2022-10-16T21:55:54;8.10;;;4.77;;
4527;SDS011;62320;51.520;6.818;2022-10-16T22:05:59;9.17;;;5.07;;
4527;SDS011;62320;51.520;6.818;2022-10-16T22:16:07;8.68;;;4.88;;
4527;SDS011;62320;51.520;6.818;2022-10-16T22:26:09;9.73;;;4.63;;
4527;SDS011;62320;51.520;6.818;2022-10-16T22:36:12;9.20;;;4.57;;
4527;SDS011;62320;51.520;6.818;2022-10-16T22:46:20;8.75;;;4.60;;
4527;SDS011;62320;51.520;6.818;2022-10-16T22:56:23;9.75;;;4.53;;
4527;SDS011;62320;51.520;6.818;2022-10-16T23:06:24;11.73;;;5.83;;
4527;SDS011;62320;51.520;6.818;2022-10-16T23:16:25;10.17;;;5.23;;
4527;SDS011;62320;51.520;6.818;2022-10-16T23:26:27;10.20;;;4.75;;
4527;SDS011;62320;51.520;6.818;2022-10-16T23:36:28;8.43;;;4.80;;
4527;SDS011;62320;51.520;6.818;2022-10-16T23:46:30;8.50;;;4.37;;
4527;SDS011;62320;51.520;6.818;2022-10-16T23:56:31;8.88;;;4.95;;
